createdAt,value
2023-05-24T00:00:26.827Z,26.67
2023-05-24T00:02:54.627Z,22.77
2023-05-24T00:05:23.141Z,13.55
2023-05-24T00:07:50.725Z,14.33
2023-05-24T00:10:18.387Z,17.95
2023-05-24T00:12:45.862Z,20.00
2023-05-24T00:15:13.474Z,30.98
2023-05-24T00:17:42.209Z,16.38
2023-05-24T00:20:11.517Z,29.73
2023-05-24T00:25:08.408Z,26.98
2023-05-24T00:27:36.681Z,33.30
2023-05-24T00:30:06.239Z,23.43
2023-05-24T00:32:34.066Z,21.88
2023-05-24T00:35:01.676Z,24.77
2023-05-24T00:37:29.140Z,25.38
2023-05-24T00:39:56.705Z,21.85
2023-05-24T00:42:25.021Z,21.77
2023-05-24T00:44:52.589Z,20.63
2023-05-24T00:47:20.453Z,20.65
2023-05-24T00:49:48.043Z,21.42
2023-05-24T00:52:16.551Z,18.15
2023-05-24T00:54:44.372Z,28.73
2023-05-24T00:57:13.449Z,15.50
2023-05-24T00:59:41.211Z,16.20
2023-05-24T01:02:08.867Z,14.40
2023-05-24T01:04:37.318Z,12.98
2023-05-24T01:07:18.351Z,15.60
2023-05-24T01:10:06.301Z,14.82
2023-05-24T01:12:57.274Z,11.02
2023-05-24T01:15:59.243Z,18.20
2023-05-24T01:18:33.290Z,10.52
2023-05-24T01:21:13.804Z,12.38
2023-05-24T01:23:54.032Z,19.92
2023-05-24T01:26:35.103Z,27.38
2023-05-24T01:29:03.617Z,18.13
2023-05-24T01:31:32.302Z,25.65
2023-05-24T01:34:00.537Z,15.35
2023-05-24T01:36:27.991Z,18.70
2023-05-24T01:38:55.576Z,28.75
2023-05-24T01:41:53.937Z,17.80
2023-05-24T01:44:24.536Z,22.02
2023-05-24T01:47:15.430Z,19.52
2023-05-24T01:49:53.403Z,24.65
2023-05-24T01:52:27.012Z,21.02
2023-05-24T01:54:57.555Z,21.08
2023-05-24T01:57:27.334Z,16.17
2023-05-24T01:59:56.716Z,24.33
2023-05-24T02:02:25.207Z,24.58
2023-05-24T02:04:52.889Z,21.77
2023-05-24T02:07:20.393Z,13.30
2023-05-24T02:09:48.014Z,21.35
2023-05-24T02:12:15.512Z,14.68
2023-05-24T02:14:43.248Z,13.20
2023-05-24T02:17:10.735Z,13.35
2023-05-24T02:19:38.279Z,19.08
2023-05-24T02:22:07.081Z,15.38
2023-05-24T02:24:36.073Z,19.45
2023-05-24T02:27:03.996Z,16.48
2023-05-24T02:29:31.455Z,13.52
2023-05-24T02:31:58.888Z,15.10
2023-05-24T02:34:26.713Z,18.42
2023-05-24T02:36:55.249Z,23.50
2023-05-24T02:39:22.974Z,19.13
2023-05-24T02:41:50.406Z,16.67
2023-05-24T02:44:18.048Z,18.90
2023-05-24T02:46:45.520Z,18.17
2023-05-24T02:49:13.291Z,13.05
2023-05-24T02:51:40.729Z,9.85
2023-05-24T02:54:08.218Z,10.30
2023-05-24T02:56:36.937Z,14.13
2023-05-24T02:59:04.473Z,14.95
2023-05-24T03:01:33.834Z,13.82
2023-05-24T03:04:01.617Z,18.00
2023-05-24T03:06:29.427Z,23.35
2023-05-24T03:08:57.917Z,26.02
2023-05-24T03:11:26.662Z,21.17
2023-05-24T03:13:54.342Z,25.25
2023-05-24T03:16:22.121Z,20.60
2023-05-24T03:18:50.467Z,19.92
2023-05-24T03:21:20.064Z,13.48
2023-05-24T03:23:47.794Z,21.92
2023-05-24T03:26:15.223Z,31.08
2023-05-24T03:28:42.717Z,28.23
2023-05-24T03:31:11.630Z,23.20
2023-05-24T03:33:39.282Z,24.15
2023-05-24T03:36:07.315Z,25.58
2023-05-24T03:38:35.203Z,27.20
2023-05-24T03:41:03.099Z,24.77
2023-05-24T03:43:30.733Z,30.98
2023-05-24T03:46:02.702Z,24.27
2023-05-24T03:48:30.284Z,25.63
2023-05-24T03:50:59.397Z,17.55
2023-05-24T03:53:27.043Z,23.15
2023-05-24T03:55:55.435Z,25.20
2023-05-24T03:58:23.053Z,24.95
2023-05-24T04:00:51.575Z,32.97
2023-05-24T04:03:19.422Z,29.35
2023-05-24T04:05:47.923Z,17.73
2023-05-24T04:08:16.994Z,23.95
2023-05-24T04:10:45.020Z,23.63
2023-05-24T04:13:13.160Z,27.77
2023-05-24T04:15:41.380Z,21.92
2023-05-24T04:18:09.157Z,14.43
2023-05-24T04:20:37.864Z,19.10
2023-05-24T04:23:05.415Z,14.80
2023-05-24T04:25:33.131Z,7.75
2023-05-24T04:28:03.320Z,12.98
2023-05-24T04:30:32.615Z,16.23
2023-05-24T04:33:00.251Z,12.23
2023-05-24T04:35:29.746Z,13.05
2023-05-24T04:37:59.099Z,22.90
2023-05-24T04:40:26.591Z,16.17
2023-05-24T04:42:54.172Z,9.93
2023-05-24T04:45:21.710Z,17.05
2023-05-24T04:47:49.264Z,17.52
2023-05-24T04:50:16.951Z,18.80
2023-05-24T04:52:44.641Z,12.95
2023-05-24T04:55:12.109Z,13.98
2023-05-24T04:57:39.611Z,8.55
2023-05-24T05:00:07.951Z,15.90
2023-05-24T05:02:36.362Z,11.10
2023-05-24T05:05:04.957Z,23.45
2023-05-24T05:07:32.339Z,16.70
2023-05-24T05:10:00.428Z,14.60
2023-05-24T05:12:27.913Z,12.88
2023-05-24T05:14:55.589Z,9.73
2023-05-24T05:17:23.071Z,10.93
2023-05-24T05:19:50.660Z,11.82
2023-05-24T05:22:18.290Z,13.07
2023-05-24T05:24:45.966Z,7.80
2023-05-24T05:27:13.564Z,9.43
2023-05-24T05:29:41.165Z,7.95
2023-05-24T05:32:09.012Z,8.87
2023-05-24T05:34:36.565Z,8.75
2023-05-24T05:37:04.491Z,12.30
2023-05-24T05:39:31.982Z,12.32
2023-05-24T05:42:01.590Z,12.45
2023-05-24T05:44:29.167Z,14.70
2023-05-24T05:46:56.718Z,16.75
2023-05-24T05:49:24.277Z,18.75
2023-05-24T05:51:52.539Z,25.52
2023-05-24T05:56:47.568Z,15.20
2023-05-24T05:59:15.674Z,20.45
2023-05-24T06:01:48.353Z,16.90
2023-05-24T06:04:16.764Z,18.15
2023-05-24T06:06:51.456Z,12.00
2023-05-24T06:09:19.717Z,31.65
2023-05-24T06:11:47.513Z,17.20
2023-05-24T06:14:17.755Z,14.50
2023-05-24T06:16:45.515Z,12.77
2023-05-24T06:19:13.254Z,15.80
2023-05-24T06:21:46.572Z,19.35
2023-05-24T06:24:15.403Z,16.02
2023-05-24T06:26:42.920Z,18.85
2023-05-24T06:29:10.338Z,15.80
2023-05-24T06:31:38.689Z,21.67
2023-05-24T06:34:06.679Z,17.58
2023-05-24T06:39:03.800Z,14.00
2023-05-24T06:41:31.223Z,12.70
2023-05-24T06:43:58.942Z,24.30
2023-05-24T06:46:26.401Z,24.52
2023-05-24T06:48:53.971Z,14.38
2023-05-24T06:51:21.554Z,34.08
2023-05-24T06:53:49.322Z,24.13
2023-05-24T06:56:17.138Z,11.63
2023-05-24T06:58:44.840Z,12.63
2023-05-24T07:01:12.299Z,15.30
2023-05-24T07:03:39.890Z,11.00
2023-05-24T07:06:09.445Z,15.35
2023-05-24T07:08:36.873Z,8.25
2023-05-24T07:11:04.340Z,10.63
2023-05-24T07:13:31.887Z,23.33
2023-05-24T07:15:59.514Z,8.48
2023-05-24T07:18:26.947Z,5.40
2023-05-24T07:20:54.531Z,8.40
2023-05-24T07:23:22.058Z,8.45
2023-05-24T07:25:49.496Z,8.75
2023-05-24T07:28:19.478Z,10.50
2023-05-24T07:30:47.005Z,5.63
2023-05-24T07:33:14.570Z,9.20
2023-05-24T07:35:42.708Z,6.37
2023-05-24T07:38:11.115Z,4.60
2023-05-24T07:43:06.270Z,6.20
2023-05-24T07:45:33.677Z,7.40
2023-05-24T07:48:01.359Z,8.18
2023-05-24T07:50:28.986Z,24.08
2023-05-24T07:52:59.442Z,7.88
2023-05-24T07:55:27.766Z,12.35
2023-05-24T07:57:56.080Z,4.22
2023-05-24T08:00:24.662Z,5.32
2023-05-24T08:05:19.911Z,15.95
2023-05-24T08:07:47.514Z,13.18
2023-05-24T08:10:15.099Z,5.57
2023-05-24T08:12:42.694Z,4.73
2023-05-24T08:15:10.711Z,10.25
2023-05-24T08:17:39.050Z,10.13
2023-05-24T08:20:13.136Z,12.82
2023-05-24T08:22:41.769Z,9.88
2023-05-24T08:25:10.993Z,11.60
2023-05-24T08:27:38.907Z,9.10
2023-05-24T08:30:07.810Z,8.68
2023-05-24T08:32:35.644Z,9.07
2023-05-24T08:35:14.887Z,38.13
2023-05-24T08:37:47.327Z,14.13
2023-05-24T08:40:15.020Z,10.32
2023-05-24T08:42:42.639Z,10.70
2023-05-24T08:45:15.244Z,13.90
2023-05-24T08:47:43.350Z,7.00
2023-05-24T08:50:12.804Z,7.35
2023-05-24T08:52:41.279Z,9.82
2023-05-24T08:55:10.516Z,5.90
2023-05-24T08:57:40.562Z,6.88
2023-05-24T09:00:10.968Z,5.80
2023-05-24T09:02:44.755Z,3.20
2023-05-24T09:05:16.270Z,4.20
2023-05-24T09:07:45.435Z,6.03
2023-05-24T09:10:13.336Z,9.05
2023-05-24T09:12:54.884Z,3.67
2023-05-24T09:15:22.733Z,7.43
2023-05-24T09:17:50.669Z,3.77
2023-05-24T09:20:19.515Z,8.52
2023-05-24T09:22:52.709Z,10.23
2023-05-24T09:25:21.044Z,8.20
2023-05-24T09:27:52.813Z,4.32
2023-05-24T09:30:21.171Z,3.22
2023-05-24T09:33:00.673Z,4.07
2023-05-24T09:35:28.393Z,11.32
2023-05-24T09:37:59.159Z,7.68
2023-05-24T09:40:28.875Z,6.03
2023-05-24T09:43:10.980Z,5.90
2023-05-24T09:45:45.848Z,3.15
2023-05-24T09:48:15.918Z,3.78
2023-05-24T09:50:46.803Z,4.70
2023-05-24T09:53:18.301Z,4.65
2023-05-24T09:55:45.771Z,5.03
2023-05-24T09:58:15.181Z,11.95
2023-05-24T10:00:46.476Z,6.35
2023-05-24T10:03:14.605Z,2.13
2023-05-24T10:05:46.153Z,5.10
2023-05-24T10:08:13.885Z,4.88
2023-05-24T10:10:42.457Z,5.95
2023-05-24T10:13:11.124Z,3.92
2023-05-24T10:15:38.547Z,7.15
2023-05-24T10:18:09.012Z,4.25
2023-05-24T10:20:38.692Z,2.63
2023-05-24T10:23:10.217Z,9.23
2023-05-24T10:25:44.140Z,3.17
2023-05-24T10:28:14.538Z,6.85
2023-05-24T10:31:26.305Z,2.47
2023-05-24T10:34:06.607Z,8.88
2023-05-24T10:36:39.655Z,3.97
2023-05-24T10:39:11.616Z,7.30
2023-05-24T10:41:41.248Z,4.40
2023-05-24T10:44:13.337Z,9.05
2023-05-24T10:47:16.426Z,2.90
2023-05-24T10:49:57.294Z,4.80
2023-05-24T10:52:37.466Z,5.32
2023-05-24T10:55:07.950Z,4.28
2023-05-24T10:57:37.644Z,3.72
2023-05-24T11:00:30.597Z,3.88
2023-05-24T11:03:11.346Z,5.40
2023-05-24T11:05:49.601Z,4.53
2023-05-24T11:08:37.211Z,10.80
2023-05-24T11:13:47.100Z,4.28
2023-05-24T11:16:36.504Z,3.28
2023-05-24T11:19:22.239Z,7.03
2023-05-24T11:21:52.916Z,4.93
2023-05-24T11:24:24.730Z,6.65
2023-05-24T11:26:53.287Z,6.00
2023-05-24T11:29:21.701Z,8.18
2023-05-24T11:34:18.516Z,3.83
2023-05-24T11:36:46.995Z,7.57
2023-05-24T11:41:43.196Z,2.42
2023-05-24T11:44:11.741Z,6.32
2023-05-24T11:49:11.728Z,3.67
2023-05-24T11:51:39.785Z,4.93
2023-05-24T11:54:07.691Z,2.67
2023-05-24T11:56:35.937Z,4.70
2023-05-24T11:59:19.549Z,8.55
2023-05-24T12:01:47.169Z,8.57
2023-05-24T12:04:14.925Z,5.97
2023-05-24T12:06:44.451Z,3.83
2023-05-24T12:09:15.943Z,4.75
2023-05-24T12:11:53.724Z,4.07
2023-05-24T12:14:30.181Z,3.67
2023-05-24T12:16:58.357Z,5.68
2023-05-24T12:19:34.184Z,5.65
2023-05-24T12:22:06.025Z,3.92
2023-05-24T12:24:34.346Z,6.75
2023-05-24T12:27:06.996Z,3.00
2023-05-24T12:29:37.073Z,4.50
2023-05-24T12:32:05.890Z,2.92
2023-05-24T12:37:01.965Z,8.40
2023-05-24T12:39:36.124Z,8.40
2023-05-24T12:42:04.400Z,8.23
2023-05-24T12:44:36.774Z,36.15
2023-05-24T12:47:07.698Z,11.65
2023-05-24T12:49:35.558Z,10.77
2023-05-24T12:52:03.791Z,6.57
2023-05-24T12:54:31.543Z,4.47
2023-05-24T12:56:59.674Z,6.07
2023-05-24T12:59:28.087Z,7.88
2023-05-24T13:01:56.100Z,5.82
2023-05-24T13:04:26.615Z,6.35
2023-05-24T13:06:54.577Z,5.57
2023-05-24T13:09:22.653Z,2.40
2023-05-24T13:11:50.223Z,10.75
2023-05-24T13:14:19.016Z,6.95
2023-05-24T13:16:47.049Z,5.72
2023-05-24T13:19:14.720Z,5.13
2023-05-24T13:21:43.072Z,6.70
2023-05-24T13:24:12.586Z,8.15
2023-05-24T13:26:40.096Z,3.05
2023-05-24T13:29:32.382Z,3.75
2023-05-24T13:31:55.884Z,4.55
2023-05-24T13:34:25.282Z,2.80
2023-05-24T13:36:53.894Z,9.20
2023-05-24T13:39:21.930Z,4.55
2023-05-24T13:41:49.634Z,7.68
2023-05-24T13:44:17.598Z,3.00
2023-05-24T13:46:45.262Z,5.57
2023-05-24T13:49:13.162Z,4.87
2023-05-24T13:51:41.576Z,3.28
2023-05-24T13:54:09.243Z,5.50
2023-05-24T13:56:38.042Z,13.97
2023-05-24T13:59:06.397Z,5.50
2023-05-24T14:01:36.955Z,2.47
2023-05-24T14:04:05.956Z,1.73
2023-05-24T14:06:34.470Z,2.53
2023-05-24T14:09:01.922Z,3.05
2023-05-24T14:11:32.023Z,1.98
2023-05-24T14:16:30.808Z,2.88
2023-05-24T14:18:58.743Z,3.80
2023-05-24T14:21:26.335Z,5.38
2023-05-24T14:23:53.821Z,3.80
2023-05-24T14:26:24.441Z,4.75
2023-05-24T14:28:55.372Z,4.03
2023-05-24T14:31:24.447Z,6.47
2023-05-24T14:33:51.965Z,7.28
2023-05-24T14:36:19.741Z,2.83
2023-05-24T14:38:47.191Z,6.75
2023-05-24T14:41:15.588Z,9.38
2023-05-24T14:43:43.172Z,5.43
2023-05-24T14:46:10.734Z,4.63
2023-05-24T14:48:40.816Z,15.85
2023-05-24T14:51:08.676Z,5.60
2023-05-24T14:53:36.306Z,10.48
2023-05-24T14:56:05.755Z,11.85
2023-05-24T14:58:33.265Z,7.10
2023-05-24T15:01:01.615Z,3.22
2023-05-24T15:03:29.147Z,10.25
2023-05-24T15:05:57.034Z,6.63
2023-05-24T15:08:24.761Z,8.77
2023-05-24T15:10:52.276Z,13.48
2023-05-24T15:13:19.947Z,8.07
2023-05-24T15:15:47.853Z,8.63
2023-05-24T15:18:15.691Z,6.18
2023-05-24T15:20:43.736Z,3.85
2023-05-24T15:23:11.702Z,7.63
2023-05-24T15:25:40.386Z,9.82
2023-05-24T15:28:10.041Z,5.70
2023-05-24T15:30:37.733Z,4.60
2023-05-24T15:33:05.978Z,5.25
2023-05-24T15:38:01.549Z,4.45
2023-05-24T15:40:29.003Z,6.35
2023-05-24T15:42:56.459Z,6.03
2023-05-24T15:45:24.020Z,2.95
2023-05-24T15:47:51.699Z,8.77
2023-05-24T15:50:28.449Z,3.30
2023-05-24T15:52:59.552Z,2.60
2023-05-24T15:55:27.329Z,5.90
2023-05-24T15:57:57.664Z,4.87
2023-05-24T16:00:26.312Z,3.17
2023-05-24T16:02:55.135Z,3.78
2023-05-24T16:05:23.815Z,2.47
2023-05-24T16:07:51.532Z,15.27
2023-05-24T16:10:19.258Z,2.92
2023-05-24T16:12:46.841Z,2.83
2023-05-24T16:15:14.513Z,3.40
2023-05-24T16:17:45.057Z,8.85
2023-05-24T16:20:12.522Z,5.90
2023-05-24T16:22:50.618Z,6.53
2023-05-24T16:25:18.254Z,12.95
2023-05-24T16:27:45.737Z,3.58
2023-05-24T16:30:13.550Z,4.50
2023-05-24T16:32:41.026Z,3.28
2023-05-24T16:35:08.922Z,4.43
2023-05-24T16:37:36.770Z,6.17
2023-05-24T16:40:05.522Z,3.92
2023-05-24T16:42:32.819Z,2.70
2023-05-24T16:45:00.364Z,3.22
2023-05-24T16:47:31.936Z,4.05
2023-05-24T16:49:59.606Z,5.75
2023-05-24T16:52:27.015Z,9.05
2023-05-24T16:54:54.480Z,3.33
2023-05-24T16:57:22.050Z,3.63
2023-05-24T16:59:50.813Z,4.22
2023-05-24T17:02:18.655Z,6.50
2023-05-24T17:04:46.075Z,7.25
2023-05-24T17:07:13.555Z,13.45
2023-05-24T17:09:41.513Z,15.85
2023-05-24T17:12:09.123Z,23.58
2023-05-24T17:14:36.630Z,18.90
2023-05-24T17:17:06.861Z,21.85
2023-05-24T17:19:36.386Z,16.08
2023-05-24T17:22:05.986Z,11.88
2023-05-24T17:24:33.419Z,16.88
2023-05-24T17:27:01.472Z,16.73
2023-05-24T17:29:29.549Z,12.23
2023-05-24T17:31:57.093Z,11.00
2023-05-24T17:34:25.261Z,9.93
2023-05-24T17:36:52.653Z,20.42
2023-05-24T17:39:20.770Z,24.73
2023-05-24T17:41:48.242Z,20.02
2023-05-24T17:44:16.869Z,20.98
2023-05-24T17:49:14.982Z,23.60
2023-05-24T17:51:42.384Z,23.88
2023-05-24T17:54:09.737Z,23.80
2023-05-24T17:56:37.107Z,16.73
2023-05-24T17:59:04.519Z,12.15
2023-05-24T18:01:32.176Z,12.68
2023-05-24T18:04:00.408Z,14.18
2023-05-24T18:06:27.936Z,18.05
2023-05-24T18:08:57.273Z,21.70
2023-05-24T18:11:24.807Z,18.33
2023-05-24T18:13:52.236Z,20.95
2023-05-24T18:16:19.995Z,22.17
2023-05-24T18:18:47.422Z,15.57
2023-05-24T18:21:15.009Z,17.00
2023-05-24T18:23:42.659Z,16.77
2023-05-24T18:26:12.325Z,21.27
2023-05-24T18:28:41.506Z,23.35
2023-05-24T18:33:41.508Z,22.63
2023-05-24T18:36:09.085Z,17.52
2023-05-24T18:38:39.157Z,8.23
2023-05-24T18:41:11.215Z,12.25
2023-05-24T18:43:39.240Z,12.88
2023-05-24T18:46:08.389Z,11.23
2023-05-24T18:48:35.737Z,12.38
2023-05-24T18:51:03.523Z,10.65
2023-05-24T18:53:31.283Z,10.63
2023-05-24T18:55:59.248Z,10.53
2023-05-24T18:58:26.940Z,17.73
2023-05-24T19:00:54.815Z,9.05
2023-05-24T19:03:24.092Z,12.88
2023-05-24T19:05:51.715Z,17.63
2023-05-24T19:08:19.265Z,12.27
2023-05-24T19:10:46.794Z,35.70
2023-05-24T19:13:14.621Z,26.42
2023-05-24T19:15:42.481Z,29.15
2023-05-24T19:18:10.001Z,25.65
2023-05-24T19:20:37.627Z,21.00
2023-05-24T19:23:05.178Z,27.92
2023-05-24T19:25:38.536Z,16.17
2023-05-24T19:28:08.142Z,20.73
2023-05-24T19:30:37.022Z,21.70
2023-05-24T19:33:04.504Z,15.90
2023-05-24T19:35:32.154Z,16.02
2023-05-24T19:38:00.214Z,21.55
2023-05-24T19:40:27.595Z,16.03
2023-05-24T19:42:55.072Z,12.38
2023-05-24T19:45:22.717Z,11.15
2023-05-24T19:47:50.453Z,8.57
2023-05-24T19:50:18.896Z,8.63
2023-05-24T19:52:46.529Z,7.05
2023-05-24T19:55:14.185Z,15.73
2023-05-24T19:57:41.714Z,9.63
2023-05-24T20:00:11.774Z,9.93
2023-05-24T20:02:39.540Z,8.88
2023-05-24T20:05:08.321Z,11.67
2023-05-24T20:07:36.120Z,15.07
2023-05-24T20:10:04.997Z,12.73
2023-05-24T20:17:29.250Z,11.48
2023-05-24T20:19:56.857Z,12.95
2023-05-24T20:22:24.460Z,19.60
2023-05-24T20:24:52.124Z,9.40
2023-05-24T20:27:19.879Z,12.40
2023-05-24T20:29:47.557Z,12.68
2023-05-24T20:32:15.685Z,13.75
2023-05-24T20:34:43.212Z,8.68
2023-05-24T20:37:10.795Z,14.85
2023-05-24T20:39:38.274Z,16.05
2023-05-24T20:42:07.807Z,13.75
2023-05-24T20:44:35.289Z,14.95
2023-05-24T20:47:03.134Z,14.77
2023-05-24T20:49:30.788Z,21.27
2023-05-24T20:51:58.304Z,19.13
2023-05-24T20:54:26.174Z,17.17
2023-05-24T20:56:53.683Z,14.43
2023-05-24T20:59:21.303Z,20.85
2023-05-24T21:01:48.805Z,18.38
2023-05-24T21:04:16.339Z,19.10
2023-05-24T21:06:43.865Z,17.08
2023-05-24T21:09:11.447Z,11.90
2023-05-24T21:11:39.022Z,16.08
2023-05-24T21:14:06.752Z,17.13
2023-05-24T21:16:34.294Z,13.90
2023-05-24T21:19:01.919Z,11.88
2023-05-24T21:21:29.641Z,9.27
2023-05-24T21:23:57.348Z,10.80
2023-05-24T21:26:25.908Z,15.98
2023-05-24T21:28:53.503Z,17.42
2023-05-24T21:31:21.193Z,15.50
2023-05-24T21:33:48.842Z,16.83
2023-05-24T21:36:18.029Z,15.38
2023-05-24T21:38:46.188Z,21.35
2023-05-24T21:41:13.745Z,13.77
2023-05-24T21:43:42.158Z,13.25
2023-05-24T21:46:09.617Z,16.27
2023-05-24T21:48:37.002Z,21.85
2023-05-24T21:51:04.638Z,24.92
2023-05-24T21:53:34.249Z,25.77
2023-05-24T21:56:02.187Z,21.48
2023-05-24T21:58:29.807Z,21.52
2023-05-24T22:00:57.429Z,15.35
2023-05-24T22:03:25.143Z,17.38
2023-05-24T22:05:52.632Z,10.65
2023-05-24T22:08:20.133Z,17.73
2023-05-24T22:10:47.639Z,13.02
2023-05-24T22:13:15.146Z,12.75
2023-05-24T22:15:45.289Z,12.75
2023-05-24T22:18:16.848Z,14.90
2023-05-24T22:20:45.077Z,11.98
2023-05-24T22:23:14.168Z,16.63
2023-05-24T22:28:09.895Z,11.27
2023-05-24T22:30:37.602Z,9.55
2023-05-24T22:33:05.256Z,17.30
2023-05-24T22:35:32.912Z,17.20
2023-05-24T22:38:00.980Z,8.38
2023-05-24T22:40:28.584Z,13.68
2023-05-24T22:42:56.225Z,17.60
2023-05-24T22:45:23.892Z,12.77
2023-05-24T22:47:51.425Z,13.23
2023-05-24T22:50:19.175Z,12.82
2023-05-24T22:52:47.958Z,12.18
2023-05-24T22:55:15.626Z,11.15
2023-05-24T22:57:43.096Z,11.65
2023-05-24T23:00:12.156Z,15.20
2023-05-24T23:02:39.895Z,12.65
2023-05-24T23:05:08.935Z,13.05
2023-05-24T23:10:05.243Z,12.75
2023-05-24T23:12:32.896Z,11.33
2023-05-24T23:15:00.505Z,23.35
2023-05-24T23:17:28.134Z,19.23
2023-05-24T23:19:55.935Z,20.38
2023-05-24T23:22:25.629Z,25.52
2023-05-24T23:24:53.218Z,22.73
2023-05-24T23:27:20.827Z,19.05
2023-05-24T23:29:48.539Z,21.67
2023-05-24T23:32:16.158Z,20.55
2023-05-24T23:34:43.794Z,14.77
2023-05-24T23:37:11.444Z,17.67
2023-05-24T23:39:38.973Z,16.05
2023-05-24T23:42:06.886Z,16.23
2023-05-24T23:44:34.585Z,15.38
2023-05-24T23:47:02.727Z,15.50
2023-05-24T23:49:31.047Z,25.15
2023-05-24T23:51:58.480Z,14.85
2023-05-24T23:54:26.171Z,12.70
2023-05-24T23:56:53.696Z,19.63
2023-05-24T23:59:21.386Z,24.52
